Time;durP1;ratioP1;P1;durP2;ratioP2;P2;SDS_P1;SDS_P2;PMS_P1;PMS_P2;Temp;Humidity;BMP_temperature;BMP_pressure;BME280_temperature;BME280_humidity;BME280_pressure;Samples;Min_cycle;Max_cycle;Signal;HPM_P1;HPM_P2
2022/11/30 00:00:48;;;;;;;10.15;8.65;;;;;;;;;;5035225;28;20065;-79
2022/11/30 00:03:14;;;;;;;12.50;10.05;;;;;;;;;;5034880;28;20045;-79
2022/11/30 00:05:40;;;;;;;13.82;9.20;;;;;;;;;;5035017;28;20452;-80
2022/11/30 00:08:06;;;;;;;12.27;8.45;;;;;;;;;;5035222;28;20038;-80
2022/11/30 00:10:32;;;;;;;10.98;9.25;;;;;;;;;;5034925;28;20025;-79
2022/11/30 00:12:58;;;;;;;12.15;9.18;;;;;;;;;;5035110;28;20029;-79
2022/11/30 00:15:24;;;;;;;12.13;9.40;;;;;;;;;;5034921;28;20432;-79
2022/11/30 00:17:55;;;;;;;10.27;9.10;;;;;;;;;;5035087;28;20021;-79
2022/11/30 00:20:21;;;;;;;11.57;9.68;;;;;;;;;;5034665;28;20029;-79
2022/11/30 00:22:47;;;;;;;13.75;10.43;;;;;;;;;;5035142;28;20029;-80
2022/11/30 00:25:13;;;;;;;14.43;11.15;;;;;;;;;;5034939;28;20028;-79
2022/11/30 00:27:39;;;;;;;14.55;11.27;;;;;;;;;;5034675;28;20029;-79
2022/11/30 00:30:06;;;;;;;14.88;11.82;;;;;;;;;;5034890;28;20461;-80
2022/11/30 00:32:32;;;;;;;16.02;12.18;;;;;;;;;;5034552;28;20028;-79
2022/11/30 00:34:58;;;;;;;19.63;13.20;;;;;;;;;;5017122;28;20030;-80
2022/11/30 00:37:24;;;;;;;18.77;15.05;;;;;;;;;;5034477;28;20033;-79
2022/11/30 00:39:50;;;;;;;15.60;11.73;;;;;;;;;;5034684;28;20376;-79
2022/11/30 00:42:16;;;;;;;15.20;12.27;;;;;;;;;;5034467;28;20034;-79
2022/11/30 00:44:42;;;;;;;20.60;13.65;;;;;;;;;;5033508;28;20037;-79
2022/11/30 00:47:09;;;;;;;21.58;14.82;;;;;;;;;;5034606;28;20096;-80
2022/11/30 00:49:35;;;;;;;23.05;16.40;;;;;;;;;;5034292;28;20401;-80
2022/11/30 00:52:01;;;;;;;27.08;18.33;;;;;;;;;;5034510;28;20152;-80
2022/11/30 00:54:27;;;;;;;20.58;15.65;;;;;;;;;;5016659;28;20439;-80
2022/11/30 00:56:53;;;;;;;24.85;18.58;;;;;;;;;;5034292;28;20523;-79
2022/11/30 00:59:20;;;;;;;26.02;17.55;;;;;;;;;;5034241;28;20144;-80
2022/11/30 01:01:46;;;;;;;24.65;16.83;;;;;;;;;;5033835;28;20545;-80
2022/11/30 01:04:12;;;;;;;17.45;14.07;;;;;;;;;;5034197;28;20017;-79
2022/11/30 01:06:38;;;;;;;18.40;13.02;;;;;;;;;;5034192;28;20472;-80
2022/11/30 01:09:04;;;;;;;16.92;13.88;;;;;;;;;;5034322;28;20028;-80
2022/11/30 01:11:31;;;;;;;19.20;14.65;;;;;;;;;;5034172;28;20026;-79
2022/11/30 01:14:01;;;;;;;18.13;14.75;;;;;;;;;;5033844;28;20033;-80
2022/11/30 01:16:31;;;;;;;18.27;14.02;;;;;;;;;;5033806;28;20041;-80
2022/11/30 01:18:57;;;;;;;21.50;14.55;;;;;;;;;;5033946;28;20528;-80
2022/11/30 01:21:24;;;;;;;18.67;14.02;;;;;;;;;;5016018;28;20034;-79
2022/11/30 01:23:51;;;;;;;20.88;15.55;;;;;;;;;;5033677;28;20061;-80
2022/11/30 01:26:17;;;;;;;24.70;18.08;;;;;;;;;;5033776;28;20088;-80
2022/11/30 01:28:44;;;;;;;22.73;15.93;;;;;;;;;;5033601;28;20033;-81
2022/11/30 01:31:11;;;;;;;16.58;12.27;;;;;;;;;;5033790;28;20099;-79
2022/11/30 01:33:38;;;;;;;15.18;11.68;;;;;;;;;;5033394;28;20049;-79
2022/11/30 01:36:11;;;;;;;14.27;11.02;;;;;;;;;;5033819;28;20080;-79
2022/11/30 01:38:39;;;;;;;15.25;11.75;;;;;;;;;;5033439;28;20379;-80
2022/11/30 01:41:05;;;;;;;13.98;12.38;;;;;;;;;;5033409;28;20041;-79
2022/11/30 01:43:40;;;;;;;14.55;11.85;;;;;;;;;;5033436;28;20061;-80
2022/11/30 01:46:17;;;;;;;14.10;11.73;;;;;;;;;;5015790;28;20033;-80
2022/11/30 01:48:44;;;;;;;16.45;11.15;;;;;;;;;;5033410;28;20037;-79
2022/11/30 01:51:10;;;;;;;13.68;11.43;;;;;;;;;;5033333;28;20018;-80
2022/11/30 01:53:36;;;;;;;16.05;11.65;;;;;;;;;;5033019;28;20053;-80
2022/11/30 01:56:02;;;;;;;16.23;12.50;;;;;;;;;;5033260;28;20108;-79
2022/11/30 01:58:29;;;;;;;16.00;12.55;;;;;;;;;;5032983;28;20076;-80
2022/11/30 02:00:56;;;;;;;20.38;15.10;;;;;;;;;;5033014;28;20543;-79
2022/11/30 02:03:34;;;;;;;17.42;13.82;;;;;;;;;;5032969;28;20124;-79
2022/11/30 02:06:00;;;;;;;16.25;13.10;;;;;;;;;;5032859;28;20461;-80
2022/11/30 02:08:26;;;;;;;15.73;12.85;;;;;;;;;;5032821;28;20041;-80
2022/11/30 02:10:58;;;;;;;14.43;11.63;;;;;;;;;;5032998;28;20112;-80
2022/11/30 02:13:43;;;;;;;13.85;11.18;;;;;;;;;;5032621;28;20083;-79
2022/11/30 02:16:27;;;;;;;14.88;11.35;;;;;;;;;;5032621;28;20036;-79
2022/11/30 02:18:59;;;;;;;17.15;12.70;;;;;;;;;;5032672;28;20141;-80
2022/11/30 02:21:33;;;;;;;16.35;12.40;;;;;;;;;;5032826;28;20033;-80
2022/11/30 02:24:23;;;;;;;15.93;11.98;;;;;;;;;;5032853;28;20037;-80
2022/11/30 02:27:07;;;;;;;15.35;12.52;;;;;;;;;;5024951;28;20046;-79
2022/11/30 02:29:52;;;;;;;19.88;14.25;;;;;;;;;;5032751;28;20480;-80
2022/11/30 02:32:24;;;;;;;19.45;14.75;;;;;;;;;;5032602;28;20545;-79
2022/11/30 02:34:51;;;;;;;22.77;14.95;;;;;;;;;;5032350;28;20476;-80
2022/11/30 02:37:17;;;;;;;22.08;15.40;;;;;;;;;;5032554;28;20052;-80
2022/11/30 02:39:43;;;;;;;18.50;13.25;;;;;;;;;;5032486;28;20029;-80
2022/11/30 02:42:14;;;;;;;17.35;12.75;;;;;;;;;;5032447;28;20033;-80
2022/11/30 02:44:41;;;;;;;13.07;11.35;;;;;;;;;;5032299;28;20035;-79
2022/11/30 02:47:25;;;;;;;15.13;12.02;;;;;;;;;;5032452;28;20037;-80
2022/11/30 02:50:06;;;;;;;18.88;13.02;;;;;;;;;;5032240;28;20021;-80
2022/11/30 02:52:33;;;;;;;18.10;12.70;;;;;;;;;;5032037;28;20030;-80
2022/11/30 02:55:05;;;;;;;17.58;14.57;;;;;;;;;;5032355;28;20037;-79
2022/11/30 02:57:31;;;;;;;19.60;15.65;;;;;;;;;;5032008;28;20022;-79
2022/11/30 02:59:58;;;;;;;22.77;16.00;;;;;;;;;;5032312;28;20025;-80
2022/11/30 03:02:24;;;;;;;21.88;15.45;;;;;;;;;;5031680;28;20085;-79
2022/11/30 03:04:50;;;;;;;17.45;12.02;;;;;;;;;;5032150;28;20500;-80
2022/11/30 03:07:16;;;;;;;16.15;13.30;;;;;;;;;;5035693;28;20033;-79
2022/11/30 03:09:42;;;;;;;20.25;14.25;;;;;;;;;;5038834;28;20029;-80
2022/11/30 03:12:08;;;;;;;17.98;13.10;;;;;;;;;;5038738;28;20489;-80
2022/11/30 03:14:34;;;;;;;16.27;12.68;;;;;;;;;;5038396;28;20400;-79
2022/11/30 03:17:00;;;;;;;16.35;11.95;;;;;;;;;;5038655;28;20028;-79
2022/11/30 03:19:26;;;;;;;16.48;13.00;;;;;;;;;;5038434;28;20048;-80
2022/11/30 03:21:52;;;;;;;18.17;13.32;;;;;;;;;;5038588;28;20052;-80
2022/11/30 03:24:18;;;;;;;13.65;11.57;;;;;;;;;;5038563;28;20025;-79
2022/11/30 03:26:45;;;;;;;14.75;11.98;;;;;;;;;;5020755;28;20033;-79
2022/11/30 03:29:11;;;;;;;14.13;11.68;;;;;;;;;;5038650;28;20055;-79
2022/11/30 03:31:37;;;;;;;15.95;12.13;;;;;;;;;;5038256;28;20033;-79
2022/11/30 03:34:03;;;;;;;13.18;11.60;;;;;;;;;;5038557;28;20108;-79
2022/11/30 03:36:29;;;;;;;15.25;11.77;;;;;;;;;;5038291;28;20433;-80
2022/11/30 03:38:55;;;;;;;13.43;11.40;;;;;;;;;;5038515;28;20080;-80
2022/11/30 03:41:21;;;;;;;14.68;12.52;;;;;;;;;;5038346;28;20037;-80
2022/11/30 03:43:47;;;;;;;15.40;12.05;;;;;;;;;;5038268;28;20072;-79
2022/11/30 03:46:14;;;;;;;15.95;12.23;;;;;;;;;;5038427;28;20037;-80
2022/11/30 03:48:40;;;;;;;16.48;12.40;;;;;;;;;;5020280;28;20128;-80
2022/11/30 03:51:06;;;;;;;14.73;11.85;;;;;;;;;;5038419;28;20021;-80
2022/11/30 03:53:32;;;;;;;15.05;11.98;;;;;;;;;;5038206;28;20029;-79
2022/11/30 03:55:59;;;;;;;14.48;11.70;;;;;;;;;;5038384;28;20350;-80
2022/11/30 03:58:26;;;;;;;12.45;9.93;;;;;;;;;;5038222;28;20473;-80
2022/11/30 04:01:05;;;;;;;13.85;10.35;;;;;;;;;;5037774;28;20381;-80
2022/11/30 04:03:32;;;;;;;15.32;12.48;;;;;;;;;;5037980;28;20029;-80
2022/11/30 04:05:58;;;;;;;14.98;12.32;;;;;;;;;;5038236;28;20029;-80
2022/11/30 04:08:25;;;;;;;12.50;10.68;;;;;;;;;;5038179;28;20052;-79
2022/11/30 04:10:52;;;;;;;14.70;11.88;;;;;;;;;;5020455;28;20037;-79
2022/11/30 04:13:18;;;;;;;15.23;11.93;;;;;;;;;;5038235;28;20538;-80
2022/11/30 04:15:46;;;;;;;14.93;11.02;;;;;;;;;;5038096;28;20072;-80
2022/11/30 04:18:12;;;;;;;15.35;10.80;;;;;;;;;;5018060;28;20030;-80
2022/11/30 04:20:38;;;;;;;14.95;10.65;;;;;;;;;;5034943;28;20383;-79
2022/11/30 04:23:04;;;;;;;15.07;11.35;;;;;;;;;;5035142;28;20037;-79
2022/11/30 04:25:30;;;;;;;16.83;12.52;;;;;;;;;;5034547;28;20029;-79
2022/11/30 04:27:56;;;;;;;16.40;12.40;;;;;;;;;;5034910;28;20033;-80
2022/11/30 04:30:22;;;;;;;16.05;11.65;;;;;;;;;;5034946;28;20068;-80
2022/11/30 04:32:49;;;;;;;15.18;11.40;;;;;;;;;;5016843;28;20477;-80
2022/11/30 04:35:15;;;;;;;12.70;10.40;;;;;;;;;;5034858;28;20025;-79
2022/11/30 04:37:41;;;;;;;13.18;10.55;;;;;;;;;;5034406;28;20034;-80
2022/11/30 04:40:07;;;;;;;12.55;9.73;;;;;;;;;;5034518;28;20029;-80
2022/11/30 04:42:33;;;;;;;15.27;10.80;;;;;;;;;;5034438;28;20488;-79
2022/11/30 04:44:59;;;;;;;14.30;10.90;;;;;;;;;;5034206;28;20476;-79
2022/11/30 04:47:26;;;;;;;13.18;10.77;;;;;;;;;;5034487;28;20056;-79
2022/11/30 04:49:52;;;;;;;15.70;11.00;;;;;;;;;;5024309;28;20492;-81
2022/11/30 04:52:18;;;;;;;15.90;12.60;;;;;;;;;;5031886;28;20025;-79
2022/11/30 04:54:44;;;;;;;20.50;14.25;;;;;;;;;;5031038;28;20503;-80
2022/11/30 04:57:10;;;;;;;25.60;18.52;;;;;;;;;;5024171;28;20103;-80
2022/11/30 04:59:36;;;;;;;46.30;27.42;;;;;;;;;;5027078;28;20064;-79
2022/11/30 05:02:02;;;;;;;35.60;24.77;;;;;;;;;;5019753;28;20053;-80
2022/11/30 05:04:29;;;;;;;36.47;23.70;;;;;;;;;;5025306;28;20492;-81
2022/11/30 05:06:55;;;;;;;33.40;22.58;;;;;;;;;;4996806;28;20029;-79
2022/11/30 05:09:21;;;;;;;23.20;17.55;;;;;;;;;;5023210;28;20473;-79
2022/11/30 05:11:48;;;;;;;47.40;33.60;;;;;;;;;;5019068;28;20033;-80
2022/11/30 05:14:14;;;;;;;28.13;20.70;;;;;;;;;;5020686;28;20030;-80
2022/11/30 05:16:40;;;;;;;21.92;18.15;;;;;;;;;;5000771;28;20038;-79
2022/11/30 05:19:06;;;;;;;28.25;21.55;;;;;;;;;;5019852;28;20105;-79
2022/11/30 05:21:32;;;;;;;20.58;15.68;;;;;;;;;;5014557;28;20389;-79
2022/11/30 05:23:58;;;;;;;20.52;13.80;;;;;;;;;;5018521;28;20022;-79
2022/11/30 05:26:30;;;;;;;16.55;13.30;;;;;;;;;;5018239;28;20112;-83
2022/11/30 05:28:56;;;;;;;19.05;14.55;;;;;;;;;;5021080;28;20056;-84
2022/11/30 05:31:25;;;;;;;19.02;15.40;;;;;;;;;;5012722;28;20072;-85
2022/11/30 05:33:54;;;;;;;19.67;14.80;;;;;;;;;;5002948;28;20030;-83
2022/11/30 05:36:46;;;;;;;20.10;16.50;;;;;;;;;;5013562;28;20091;-82
2022/11/30 05:39:15;;;;;;;23.85;16.58;;;;;;;;;;5001722;28;20452;-84
2022/11/30 05:42:08;;;;;;;20.30;14.23;;;;;;;;;;5012918;28;20053;-85
2022/11/30 05:44:34;;;;;;;26.33;17.33;;;;;;;;;;4963972;28;20038;-83
2022/11/30 05:50:32;;;;;;;49.42;28.10;;;;;;;;;;4998858;28;20061;-84
2022/11/30 05:53:01;;;;;;;53.58;30.23;;;;;;;;;;4978722;28;20038;-84
2022/11/30 05:55:31;;;;;;;51.10;30.30;;;;;;;;;;4991941;28;20038;-83
2022/11/30 05:58:04;;;;;;;44.78;29.98;;;;;;;;;;4975449;28;20436;-84
2022/11/30 06:00:30;;;;;;;45.88;30.25;;;;;;;;;;5003408;28;20904;-86
2022/11/30 06:03:06;;;;;;;29.83;21.67;;;;;;;;;;4982162;28;20133;-82
2022/11/30 06:05:34;;;;;;;24.80;19.67;;;;;;;;;;4992035;28;20065;-83
2022/11/30 06:08:00;;;;;;;19.98;15.68;;;;;;;;;;4997450;28;20064;-84
2022/11/30 06:10:29;;;;;;;20.70;16.60;;;;;;;;;;5033023;28;20057;-82
2022/11/30 06:12:58;;;;;;;22.08;16.00;;;;;;;;;;5015065;28;20080;-84
2022/11/30 06:15:24;;;;;;;22.67;17.85;;;;;;;;;;5032497;28;20040;-82
2022/11/30 06:17:50;;;;;;;29.55;21.92;;;;;;;;;;5015379;28;20025;-83
2022/11/30 06:20:17;;;;;;;33.13;21.85;;;;;;;;;;5022749;28;20037;-83
2022/11/30 06:23:02;;;;;;;28.13;20.10;;;;;;;;;;5032622;28;20060;-83
2022/11/30 06:25:28;;;;;;;;;;;;;;;;;;5033122;28;20021;-84
2022/11/30 06:27:54;;;;;;;24.08;17.80;;;;;;;;;;5030306;28;19905;-83
2022/11/30 06:30:20;;;;;;;23.73;16.77;;;;;;;;;;5013890;28;20164;-83
2022/11/30 06:32:50;;;;;;;22.48;18.13;;;;;;;;;;5012047;28;20025;-82
2022/11/30 06:35:54;;;;;;;21.98;17.55;;;;;;;;;;5005912;28;20030;-82
2022/11/30 06:38:32;;;;;;;23.10;17.33;;;;;;;;;;4968658;28;20042;-85
2022/11/30 06:41:36;;;;;;;24.42;18.85;;;;;;;;;;5015043;28;20034;-83
2022/11/30 06:44:13;;;;;;;22.10;18.30;;;;;;;;;;5002285;28;20033;-82
2022/11/30 06:46:39;;;;;;;24.58;19.10;;;;;;;;;;5022226;28;20030;-82
2022/11/30 06:49:06;;;;;;;28.17;20.60;;;;;;;;;;5015879;28;20034;-79
2022/11/30 06:51:38;;;;;;;30.75;23.55;;;;;;;;;;5010708;28;20528;-79
2022/11/30 06:54:31;;;;;;;28.80;22.38;;;;;;;;;;5009970;28;20038;-83
2022/11/30 06:56:57;;;;;;;28.30;21.48;;;;;;;;;;4997072;28;20436;-82
2022/11/30 06:59:23;;;;;;;29.08;22.42;;;;;;;;;;4992524;28;20481;-80
2022/11/30 07:01:49;;;;;;;36.53;28.05;;;;;;;;;;5010041;28;20124;-80
2022/11/30 07:04:15;;;;;;;38.45;29.42;;;;;;;;;;5000927;28;20037;-79
2022/11/30 07:06:42;;;;;;;28.55;22.10;;;;;;;;;;5013093;28;20489;-79
2022/11/30 07:09:10;;;;;;;28.55;22.00;;;;;;;;;;5027093;28;20066;-81
2022/11/30 07:11:36;;;;;;;26.13;20.67;;;;;;;;;;5017519;28;20069;-79
2022/11/30 07:14:02;;;;;;;99.07;64.20;;;;;;;;;;4993441;28;20192;-78
2022/11/30 07:16:28;;;;;;;38.40;28.10;;;;;;;;;;5014950;28;20033;-80
2022/11/30 07:18:54;;;;;;;48.60;34.95;;;;;;;;;;5018630;28;20036;-81
2022/11/30 07:21:21;;;;;;;38.78;28.42;;;;;;;;;;5008218;28;20038;-79
2022/11/30 07:26:32;;;;;;;34.92;27.00;;;;;;;;;;5014789;28;20048;-81
2022/11/30 07:28:58;;;;;;;32.05;23.05;;;;;;;;;;5007937;28;20030;-80
2022/11/30 07:31:29;;;;;;;38.67;28.30;;;;;;;;;;5013679;28;20096;-81
2022/11/30 07:34:17;;;;;;;48.30;35.65;;;;;;;;;;5010468;28;20025;-80
2022/11/30 07:36:43;;;;;;;43.95;32.88;;;;;;;;;;4988757;28;20035;-85
2022/11/30 07:39:10;;;;;;;42.78;33.10;;;;;;;;;;5005944;28;20045;-81
2022/11/30 07:41:37;;;;;;;38.10;28.65;;;;;;;;;;5018095;28;20076;-80
2022/11/30 07:44:06;;;;;;;42.75;33.03;;;;;;;;;;5008015;28;20035;-79
2022/11/30 07:46:34;;;;;;;35.28;27.42;;;;;;;;;;5018173;28;20044;-79
2022/11/30 07:49:01;;;;;;;41.10;32.25;;;;;;;;;;5001141;28;20482;-79
2022/11/30 07:51:27;;;;;;;28.88;22.45;;;;;;;;;;4997504;28;20030;-78
2022/11/30 07:53:55;;;;;;;29.25;23.98;;;;;;;;;;5011925;28;20037;-79
2022/11/30 07:56:21;;;;;;;29.48;23.10;;;;;;;;;;5013021;28;20073;-80
2022/11/30 07:58:48;;;;;;;26.98;20.05;;;;;;;;;;5013133;28;20022;-81
2022/11/30 08:01:16;;;;;;;30.30;24.45;;;;;;;;;;5014713;28;20038;-82
2022/11/30 08:03:42;;;;;;;31.60;24.10;;;;;;;;;;5013690;28;20034;-80
2022/11/30 08:06:10;;;;;;;31.23;23.08;;;;;;;;;;4996496;28;20380;-80
2022/11/30 08:08:37;;;;;;;35.55;28.05;;;;;;;;;;5011313;28;20096;-81
2022/11/30 08:11:04;;;;;;;41.83;31.10;;;;;;;;;;5021600;28;20064;-81
2022/11/30 08:13:30;;;;;;;32.85;26.42;;;;;;;;;;5023320;28;20026;-81
2022/11/30 08:16:00;;;;;;;32.67;26.27;;;;;;;;;;5009989;28;20112;-81
2022/11/30 08:18:26;;;;;;;35.08;26.45;;;;;;;;;;5010129;28;20404;-78
2022/11/30 08:21:11;;;;;;;31.58;22.73;;;;;;;;;;5011212;28;20041;-80
2022/11/30 08:23:38;;;;;;;37.53;28.67;;;;;;;;;;5020316;28;20037;-81
2022/11/30 08:26:08;;;;;;;34.47;26.40;;;;;;;;;;5020771;28;20034;-79
2022/11/30 08:28:37;;;;;;;37.67;28.42;;;;;;;;;;5013973;28;20068;-79
2022/11/30 08:31:05;;;;;;;32.33;25.02;;;;;;;;;;5003637;28;20033;-79
2022/11/30 08:33:32;;;;;;;28.00;22.48;;;;;;;;;;4996060;28;20034;-79
2022/11/30 08:36:17;;;;;;;29.60;23.17;;;;;;;;;;5026675;28;20065;-80
2022/11/30 08:38:47;;;;;;;30.55;22.45;;;;;;;;;;4984202;28;20409;-80
2022/11/30 08:41:14;;;;;;;29.13;22.83;;;;;;;;;;5018235;28;20484;-79
2022/11/30 08:43:40;;;;;;;38.85;29.27;;;;;;;;;;5025819;28;20440;-77
2022/11/30 08:46:08;;;;;;;37.53;26.45;;;;;;;;;;5017467;28;20033;-78
2022/11/30 08:48:34;;;;;;;33.15;24.30;;;;;;;;;;5015268;28;20033;-80
2022/11/30 08:51:01;;;;;;;37.75;28.60;;;;;;;;;;5009417;28;20034;-78
2022/11/30 08:53:27;;;;;;;32.08;24.25;;;;;;;;;;5017541;28;20033;-80
2022/11/30 08:56:01;;;;;;;32.90;26.05;;;;;;;;;;5016280;28;20030;-80
2022/11/30 08:58:29;;;;;;;30.83;23.90;;;;;;;;;;4995746;28;20026;-78
2022/11/30 09:01:06;;;;;;;32.63;25.30;;;;;;;;;;5020785;28;20100;-80
2022/11/30 09:03:35;;;;;;;38.85;28.13;;;;;;;;;;5015039;28;20034;-80
2022/11/30 09:06:20;;;;;;;36.13;28.38;;;;;;;;;;5024216;28;20778;-80
2022/11/30 09:09:12;;;;;;;35.00;27.80;;;;;;;;;;5001210;28;20046;-80
2022/11/30 09:11:38;;;;;;;31.98;24.77;;;;;;;;;;4995069;28;20034;-79
2022/11/30 09:14:05;;;;;;;36.47;27.13;;;;;;;;;;4986985;28;20044;-78
2022/11/30 09:16:32;;;;;;;33.42;26.73;;;;;;;;;;5010244;28;20109;-78
2022/11/30 09:18:58;;;;;;;32.78;22.70;;;;;;;;;;5012894;28;20044;-79
2022/11/30 09:21:24;;;;;;;33.30;26.42;;;;;;;;;;5012733;28;20030;-81
2022/11/30 09:23:51;;;;;;;33.72;24.15;;;;;;;;;;4995930;28;20034;-79
2022/11/30 09:26:18;;;;;;;33.90;26.35;;;;;;;;;;5012972;28;20030;-80
2022/11/30 09:28:48;;;;;;;34.25;25.25;;;;;;;;;;5008021;28;20110;-83
2022/11/30 09:31:15;;;;;;;33.47;27.13;;;;;;;;;;5020812;28;20510;-82
2022/11/30 09:33:41;;;;;;;33.05;24.77;;;;;;;;;;5017653;28;20036;-81
2022/11/30 09:36:08;;;;;;;33.90;25.33;;;;;;;;;;5011085;28;20556;-82
2022/11/30 09:42:17;;;;;;;;;;;;;;;;;;4931333;28;20056;-83
2022/11/30 09:44:47;;;;;;;35.10;26.77;;;;;;;;;;5011453;28;19916;-81
2022/11/30 09:47:32;;;;;;;35.65;27.65;;;;;;;;;;5011304;28;20037;-82
2022/11/30 09:50:00;;;;;;;;;;;;;;;;;;5006985;28;20080;-82
2022/11/30 09:52:32;;;;;;;34.95;23.55;;;;;;;;;;4993301;28;19908;-81
2022/11/30 09:55:02;;;;;;;31.77;23.42;;;;;;;;;;5006745;28;20037;-81
2022/11/30 09:57:34;;;;;;;29.92;21.33;;;;;;;;;;4991228;28;20482;-83
2022/11/30 10:00:02;;;;;;;29.70;21.80;;;;;;;;;;5025939;28;20033;-80
2022/11/30 10:02:30;;;;;;;26.73;20.48;;;;;;;;;;5017137;28;20064;-80
2022/11/30 10:04:57;;;;;;;150.13;51.28;;;;;;;;;;5023975;28;20080;-78
2022/11/30 10:07:41;;;;;;;35.45;24.15;;;;;;;;;;5022285;28;20029;-81
2022/11/30 10:10:26;;;;;;;31.92;23.80;;;;;;;;;;5012324;28;20037;-79
2022/11/30 10:12:52;;;;;;;29.02;21.73;;;;;;;;;;5024457;28;20092;-80
2022/11/30 10:15:26;;;;;;;34.60;23.90;;;;;;;;;;5021193;28;20048;-80
2022/11/30 10:17:54;;;;;;;47.83;31.10;;;;;;;;;;5013368;28;20112;-80
2022/11/30 10:20:39;;;;;;;40.85;25.25;;;;;;;;;;5006153;28;20030;-80
2022/11/30 10:23:25;;;;;;;28.75;19.17;;;;;;;;;;5012659;28;20072;-78
2022/11/30 10:25:58;;;;;;;30.25;20.88;;;;;;;;;;5006803;28;20022;-79
2022/11/30 10:28:31;;;;;;;29.65;21.88;;;;;;;;;;5009127;28;20075;-80
2022/11/30 10:31:11;;;;;;;31.65;21.55;;;;;;;;;;5006489;28;20483;-78
2022/11/30 10:33:41;;;;;;;33.67;25.13;;;;;;;;;;5009094;28;20045;-78
2022/11/30 10:36:13;;;;;;;29.42;22.48;;;;;;;;;;5010847;28;20108;-78
2022/11/30 10:38:41;;;;;;;30.63;22.48;;;;;;;;;;5005609;28;20029;-78
2022/11/30 10:41:11;;;;;;;46.10;26.88;;;;;;;;;;5013727;28;20640;-79
2022/11/30 10:43:42;;;;;;;37.85;24.70;;;;;;;;;;5017420;28;20417;-78
2022/11/30 10:46:14;;;;;;;40.70;25.02;;;;;;;;;;5012696;28;20477;-79
2022/11/30 10:48:43;;;;;;;52.85;32.42;;;;;;;;;;5008229;28;20036;-78
2022/11/30 10:51:10;;;;;;;38.42;26.90;;;;;;;;;;5015863;28;20030;-78
2022/11/30 10:53:36;;;;;;;27.38;18.77;;;;;;;;;;5018468;28;20022;-78
2022/11/30 10:56:06;;;;;;;28.73;21.25;;;;;;;;;;5012199;28;20440;-77
2022/11/30 10:58:51;;;;;;;32.17;23.65;;;;;;;;;;5025617;28;20033;-76
2022/11/30 11:01:17;;;;;;;;;;;;;;;;;;5008925;28;20124;-77
2022/11/30 11:03:48;;;;;;;31.10;24.95;;;;;;;;;;4987571;28;21147;-77
2022/11/30 11:06:24;;;;;;;23.67;18.48;;;;;;;;;;4992725;28;20034;-76
2022/11/30 11:08:50;;;;;;;33.05;26.33;;;;;;;;;;5006738;28;20486;-77
2022/11/30 11:11:35;;;;;;;41.97;30.08;;;;;;;;;;5016039;28;20031;-76
2022/11/30 11:14:20;;;;;;;33.03;24.27;;;;;;;;;;5012198;28;20112;-75
2022/11/30 11:16:50;;;;;;;29.27;21.70;;;;;;;;;;5003253;28;20501;-76
2022/11/30 11:19:23;;;;;;;28.98;21.75;;;;;;;;;;5004330;28;20026;-78
2022/11/30 11:21:50;;;;;;;39.03;28.58;;;;;;;;;;5009100;28;20434;-76
2022/11/30 11:24:33;;;;;;;23.98;18.08;;;;;;;;;;4994474;28;20489;-77
2022/11/30 11:27:02;;;;;;;29.85;23.77;;;;;;;;;;4992226;28;20030;-77
2022/11/30 11:29:35;;;;;;;22.38;18.52;;;;;;;;;;5013129;28;20046;-77
2022/11/30 11:32:20;;;;;;;28.40;20.33;;;;;;;;;;5009961;28;20148;-78
2022/11/30 11:34:46;;;;;;;;;;;;;;;;;;5008348;28;20038;-79
2022/11/30 11:37:32;;;;;;;29.30;23.35;;;;;;;;;;5014081;28;19965;-80
2022/11/30 11:40:12;;;;;;;28.15;22.73;;;;;;;;;;5011572;28;20415;-79
2022/11/30 11:42:41;;;;;;;28.05;20.13;;;;;;;;;;4990316;28;20053;-76
2022/11/30 11:45:16;;;;;;;27.35;19.05;;;;;;;;;;5016297;28;20041;-77
2022/11/30 11:47:44;;;;;;;25.58;17.80;;;;;;;;;;5015526;28;20205;-77
2022/11/30 11:50:21;;;;;;;34.22;26.23;;;;;;;;;;5011525;28;20027;-77
2022/11/30 11:52:47;;;;;;;29.90;18.48;;;;;;;;;;5015437;28;20021;-77
2022/11/30 11:55:23;;;;;;;18.83;14.38;;;;;;;;;;5013470;28;20030;-78
2022/11/30 11:57:54;;;;;;;23.83;16.45;;;;;;;;;;5013527;28;20026;-79
2022/11/30 12:00:22;;;;;;;19.92;15.00;;;;;;;;;;5011412;28;20018;-79
2022/11/30 12:03:22;;;;;;;18.45;14.80;;;;;;;;;;4993972;28;20416;-78
2022/11/30 12:05:56;;;;;;;20.45;14.93;;;;;;;;;;5017313;28;20033;-79
2022/11/30 12:08:30;;;;;;;22.27;15.38;;;;;;;;;;5015316;28;20087;-79
2022/11/30 12:10:59;;;;;;;17.92;14.15;;;;;;;;;;5017161;28;20029;-79
2022/11/30 12:13:44;;;;;;;17.83;13.85;;;;;;;;;;5022159;28;20033;-79
2022/11/30 12:16:15;;;;;;;;;;;;;;;;;;5001118;28;20056;-80
2022/11/30 12:19:04;;;;;;;21.45;15.98;;;;;;;;;;5011674;28;19913;-78
2022/11/30 12:22:00;;;;;;;21.60;16.80;;;;;;;;;;5013530;28;20022;-78
2022/11/30 12:24:43;;;;;;;23.52;16.98;;;;;;;;;;4993947;28;20170;-78
2022/11/30 12:27:44;;;;;;;18.42;14.43;;;;;;;;;;4997075;28;20029;-78
2022/11/30 12:30:33;;;;;;;23.75;18.10;;;;;;;;;;5006776;28;20033;-77
2022/11/30 12:33:10;;;;;;;22.77;17.55;;;;;;;;;;4988978;28;20544;-78
2022/11/30 12:36:08;;;;;;;23.20;17.23;;;;;;;;;;4995913;28;20456;-80
2022/11/30 12:39:00;;;;;;;24.60;18.67;;;;;;;;;;4997995;28;20037;-79
2022/11/30 12:41:41;;;;;;;20.73;16.83;;;;;;;;;;5023167;28;20076;-79
2022/11/30 12:44:13;;;;;;;19.15;15.57;;;;;;;;;;4994716;28;20445;-81
2022/11/30 12:46:45;;;;;;;29.25;22.08;;;;;;;;;;5011442;28;20022;-80
2022/11/30 12:49:30;;;;;;;29.38;19.70;;;;;;;;;;5032245;28;20025;-83
2022/11/30 12:52:14;;;;;;;27.23;20.83;;;;;;;;;;5013430;28;20029;-83
2022/11/30 12:54:59;;;;;;;25.77;18.27;;;;;;;;;;5005137;28;20029;-81
2022/11/30 12:57:28;;;;;;;32.13;23.58;;;;;;;;;;5011946;28;20033;-78
2022/11/30 13:00:02;;;;;;;24.92;18.58;;;;;;;;;;5014480;28;20091;-77
2022/11/30 13:02:51;;;;;;;20.42;15.02;;;;;;;;;;5011873;28;20053;-78
2022/11/30 13:05:23;;;;;;;21.67;15.15;;;;;;;;;;5006169;28;20046;-77
2022/11/30 13:07:52;;;;;;;23.10;16.17;;;;;;;;;;5019170;28;20041;-78
2022/11/30 13:10:26;;;;;;;20.38;15.98;;;;;;;;;;4997506;28;20034;-77
2022/11/30 13:12:53;;;;;;;17.85;13.77;;;;;;;;;;5030653;28;20025;-78
2022/11/30 13:15:24;;;;;;;17.50;13.73;;;;;;;;;;5010681;28;20124;-77
2022/11/30 13:17:51;;;;;;;20.15;13.43;;;;;;;;;;5012579;28;20037;-77
2022/11/30 13:20:23;;;;;;;17.42;13.65;;;;;;;;;;5012748;28;20030;-77
2022/11/30 13:23:08;;;;;;;15.55;13.57;;;;;;;;;;5019678;28;20381;-77
2022/11/30 13:25:34;;;;;;;18.23;14.07;;;;;;;;;;5015439;28;20041;-78
2022/11/30 13:28:18;;;;;;;20.40;13.07;;;;;;;;;;5015959;28;20025;-79
2022/11/30 13:30:58;;;;;;;324.88;92.18;;;;;;;;;;5011451;28;20038;-80
2022/11/30 13:33:34;;;;;;;25.35;20.90;;;;;;;;;;4995477;28;20396;-81
2022/11/30 13:36:03;;;;;;;94.53;79.38;;;;;;;;;;5009915;28;20026;-81
2022/11/30 13:38:29;;;;;;;32.13;25.50;;;;;;;;;;5021186;28;20026;-80
2022/11/30 13:40:57;;;;;;;60.95;45.00;;;;;;;;;;5007390;28;20033;-79
2022/11/30 13:43:24;;;;;;;46.63;36.97;;;;;;;;;;5006419;28;20046;-77
2022/11/30 13:46:01;;;;;;;20.70;15.45;;;;;;;;;;5012464;28;20132;-79
2022/11/30 13:48:27;;;;;;;20.73;15.38;;;;;;;;;;5020581;28;20013;-79
2022/11/30 13:50:54;;;;;;;26.67;17.90;;;;;;;;;;5003866;28;20389;-78
2022/11/30 13:53:27;;;;;;;21.42;15.38;;;;;;;;;;5008914;28;20026;-79
2022/11/30 13:56:12;;;;;;;18.60;14.57;;;;;;;;;;5008584;28;20022;-79
2022/11/30 13:58:58;;;;;;;29.42;24.55;;;;;;;;;;5006783;28;20477;-80
2022/11/30 14:01:26;;;;;;;31.45;24.25;;;;;;;;;;5006983;28;20050;-81
2022/11/30 14:04:10;;;;;;;36.00;28.88;;;;;;;;;;5005326;28;20028;-78
2022/11/30 14:06:36;;;;;;;;;;;;;;;;;;4977496;28;20401;-78
2022/11/30 14:09:02;;;;;;;25.40;20.23;;;;;;;;;;4992452;28;19910;-80
2022/11/30 14:11:47;;;;;;;27.65;21.13;;;;;;;;;;4992036;28;20018;-80
2022/11/30 14:14:32;;;;;;;24.05;19.63;;;;;;;;;;4991953;28;20022;-81
2022/11/30 14:16:58;;;;;;;43.58;26.65;;;;;;;;;;4992279;28;20030;-80
2022/11/30 14:19:25;;;;;;;566.15;179.90;;;;;;;;;;4992429;28;20033;-79
2022/11/30 14:21:51;;;;;;;249.25;79.00;;;;;;;;;;4991933;28;20033;-77
2022/11/30 14:24:20;;;;;;;41.75;24.23;;;;;;;;;;4992018;28;20041;-78
2022/11/30 14:26:47;;;;;;;48.95;30.88;;;;;;;;;;4992236;28;20078;-80
2022/11/30 14:29:25;;;;;;;26.88;19.35;;;;;;;;;;5015320;28;20025;-79
2022/11/30 14:31:56;;;;;;;29.40;21.25;;;;;;;;;;5031075;28;20081;-79
2022/11/30 14:34:32;;;;;;;28.35;21.13;;;;;;;;;;5031151;28;20560;-78
2022/11/30 14:37:25;;;;;;;42.85;28.67;;;;;;;;;;5022614;28;20068;-78
2022/11/30 14:39:55;;;;;;;45.83;31.08;;;;;;;;;;5009896;28;20038;-78
2022/11/30 14:42:28;;;;;;;37.78;24.75;;;;;;;;;;5011051;28;20113;-79
2022/11/30 14:44:54;;;;;;;28.70;20.42;;;;;;;;;;5011144;28;20026;-79
2022/11/30 14:47:27;;;;;;;30.73;22.33;;;;;;;;;;5011394;28;20112;-79
2022/11/30 14:49:55;;;;;;;18.52;14.30;;;;;;;;;;5011665;28;20512;-79